Time;durP1;ratioP1;P1;durP2;ratioP2;P2;SDS_P1;SDS_P2;PMS_P1;PMS_P2;Temp;Humidity;BMP_temperature;BMP_pressure;BME280_temperature;BME280_humidity;BME280_pressure;Samples;Min_cycle;Max_cycle;Signal;HPM_P1;HPM_P2
2024/04/05 00:00:40;;;;;;;;;;;18.30;57.20;;;;;;4993747;28;20221;-72
2024/04/05 00:03:06;;;;;;;;;;;18.20;56.70;;;;;;4993360;28;19976;-72
2024/04/05 00:05:31;;;;;;;;;;;18.20;57.10;;;;;;4993170;28;20017;-72
2024/04/05 00:07:57;;;;;;;;;;;18.20;57.20;;;;;;4993301;28;20013;-72
2024/04/05 00:10:22;;;;;;;;;;;18.20;57.30;;;;;;4993281;28;19910;-72
2024/04/05 00:12:48;;;;;;;;;;;18.20;57.20;;;;;;4993068;28;19914;-73
2024/04/05 00:15:13;;;;;;;;;;;18.20;57.30;;;;;;4993073;28;19916;-72
2024/04/05 00:17:39;;;;;;;;;;;18.20;57.20;;;;;;4992605;28;19917;-72
2024/04/05 00:20:04;;;;;;;;;;;18.30;57.30;;;;;;4993089;28;19917;-72
2024/04/05 00:22:30;;;;;;;;;;;18.20;57.00;;;;;;5008137;28;19972;-72
2024/04/05 00:24:57;;;;;;;;;;;18.20;56.80;;;;;;4993516;28;20009;-73
2024/04/05 00:27:23;;;;;;;;;;;18.20;57.20;;;;;;4993345;28;20304;-72
2024/04/05 00:29:48;;;;;;;;;;;18.20;57.50;;;;;;4993069;28;20467;-72
2024/04/05 00:32:14;;;;;;;;;;;18.10;58.00;;;;;;4993011;28;19949;-73
2024/04/05 00:34:40;;;;;;;;;;;18.20;57.30;;;;;;4992981;28;19916;-72
2024/04/05 00:37:05;;;;;;;;;;;18.20;56.70;;;;;;4992750;28;19921;-72
2024/04/05 00:39:31;;;;;;;;;;;18.20;57.40;;;;;;4992960;28;19910;-72
2024/04/05 00:41:56;;;;;;;;;;;18.20;57.40;;;;;;4992828;28;19949;-72
2024/04/05 00:44:22;;;;;;;;;;;18.20;57.50;;;;;;4992894;28;20004;-72
2024/04/05 00:46:47;;;;;;;;;;;18.10;57.40;;;;;;4992660;28;20292;-71
2024/04/05 00:49:13;;;;;;;;;;;18.20;57.70;;;;;;4992713;28;19909;-72
2024/04/05 00:51:38;;;;;;;;;;;18.10;57.80;;;;;;4992750;28;19910;-72
2024/04/05 00:54:05;;;;;;;;;;;18.10;56.90;;;;;;4993268;28;20381;-76
2024/04/05 00:56:31;;;;;;;;;;;18.10;57.60;;;;;;4992674;28;19972;-76
2024/04/05 00:58:57;;;;;;;;;;;18.10;57.40;;;;;;4992710;28;19952;-76
2024/04/05 01:01:23;;;;;;;;;;;18.10;57.50;;;;;;4992707;28;20424;-76
2024/04/05 01:03:48;;;;;;;;;;;18.10;57.50;;;;;;4992804;28;20012;-76
2024/04/05 01:06:14;;;;;;;;;;;18.10;57.50;;;;;;4992579;28;20008;-76
2024/04/05 01:08:39;;;;;;;;;;;18.70;57.90;;;;;;4992848;28;19932;-76
2024/04/05 01:11:05;;;;;;;;;;;18.10;58.10;;;;;;4992649;28;19910;-76
2024/04/05 01:13:30;;;;;;;;;;;18.10;57.60;;;;;;4992581;28;20012;-76
2024/04/05 01:15:56;;;;;;;;;;;18.00;57.50;;;;;;4992463;28;19998;-76
2024/04/05 01:18:22;;;;;;;;;;;18.10;57.50;;;;;;4992829;28;19956;-76
2024/04/05 01:20:50;;;;;;;;;;;18.00;56.80;;;;;;4993002;28;20347;-76
2024/04/05 01:23:16;;;;;;;;;;;18.10;57.50;;;;;;4992529;28;20127;-77
2024/04/05 01:25:42;;;;;;;;;;;18.10;57.50;;;;;;4992451;28;20334;-77
2024/04/05 01:28:13;;;;;;;;;;;18.10;57.60;;;;;;4992489;28;20008;-77
2024/04/05 01:30:39;;;;;;;;;;;18.10;57.20;;;;;;4994636;28;19909;-77
2024/04/05 01:33:05;;;;;;;;;;;18.00;57.60;;;;;;4996247;28;19917;-76
2024/04/05 01:35:30;;;;;;;;;;;18.00;57.60;;;;;;4994943;28;19917;-76
2024/04/05 01:37:56;;;;;;;;;;;18.10;57.00;;;;;;4995957;28;19980;-77
2024/04/05 01:40:22;;;;;;;;;;;18.10;57.60;;;;;;4996068;28;19914;-76
2024/04/05 01:42:48;;;;;;;;;;;18.00;57.80;;;;;;4996079;28;20299;-77
2024/04/05 01:45:13;;;;;;;;;;;18.00;57.60;;;;;;4995946;28;19909;-76
2024/04/05 01:47:39;;;;;;;;;;;18.00;57.70;;;;;;4996011;28;20501;-77
2024/04/05 01:50:05;;;;;;;;;;;18.00;57.90;;;;;;4996406;28;19960;-77
2024/04/05 01:52:30;;;;;;;;;;;18.00;58.00;;;;;;4995826;28;19916;-76
2024/04/05 01:54:56;;;;;;;;;;;18.60;58.10;;;;;;5010844;28;19914;-77
2024/04/05 01:57:22;;;;;;;;;;;18.00;57.90;;;;;;4995694;28;19992;-77
2024/04/05 01:59:51;;;;;;;;;;;18.00;57.70;;;;;;4995788;28;19949;-77
2024/04/05 02:02:17;;;;;;;;;;;18.00;57.40;;;;;;4995694;28;19909;-77
2024/04/05 02:04:43;;;;;;;;;;;18.00;57.80;;;;;;4995620;28;19917;-77
2024/04/05 02:07:08;;;;;;;;;;;18.00;57.70;;;;;;4995412;28;20375;-77
2024/04/05 02:09:34;;;;;;;;;;;18.00;57.90;;;;;;4995813;28;19917;-77
2024/04/05 02:11:59;;;;;;;;;;;18.00;57.80;;;;;;5010607;28;19917;-77
2024/04/05 02:14:25;;;;;;;;;;;18.00;57.80;;;;;;4995388;28;19910;-77
2024/04/05 02:16:51;;;;;;;;;;;18.00;57.70;;;;;;4995740;28;19957;-77
2024/04/05 02:19:17;;;;;;;;;;;18.00;57.30;;;;;;4996014;28;19910;-76
2024/04/05 02:21:42;;;;;;;;;;;18.70;58.50;;;;;;4995439;28;19910;-76
2024/04/05 02:24:08;;;;;;;;;;;18.00;58.30;;;;;;4995277;28;19956;-76
2024/04/05 02:26:33;;;;;;;;;;;17.90;58.10;;;;;;4995137;28;20008;-76
2024/04/05 02:28:59;;;;;;;;;;;18.00;58.10;;;;;;4995344;28;19914;-76
2024/04/05 02:31:24;;;;;;;;;;;17.90;58.00;;;;;;4995240;28;20339;-77
2024/04/05 02:33:50;;;;;;;;;;;17.90;57.90;;;;;;4995250;28;19909;-76
2024/04/05 02:36:15;;;;;;;;;;;17.90;57.20;;;;;;4994836;28;19980;-76
2024/04/05 02:38:40;;;;;;;;;;;17.40;57.70;;;;;;4994932;28;19953;-76
2024/04/05 02:41:07;;;;;;;;;;;17.90;58.00;;;;;;4994401;28;19913;-76
2024/04/05 02:43:33;;;;;;;;;;;17.90;57.90;;;;;;4994912;28;19914;-76
2024/04/05 02:45:59;;;;;;;;;;;17.90;58.00;;;;;;4994723;28;20300;-76
2024/04/05 02:48:24;;;;;;;;;;;17.90;57.30;;;;;;4995309;28;19910;-77
2024/04/05 02:50:50;;;;;;;;;;;17.90;57.90;;;;;;4994825;28;20283;-76
2024/04/05 02:53:15;;;;;;;;;;;17.90;57.90;;;;;;4994714;28;19929;-76
2024/04/05 02:55:41;;;;;;;;;;;17.90;58.00;;;;;;4994612;28;20265;-76
2024/04/05 02:58:06;;;;;;;;;;;17.90;58.10;;;;;;4994724;28;19910;-76
2024/04/05 03:00:35;;;;;;;;;;;17.90;58.00;;;;;;4994647;28;19940;-76
2024/04/05 03:03:00;;;;;;;;;;;17.90;57.90;;;;;;4994538;28;19949;-77
2024/04/05 03:05:26;;;;;;;;;;;17.90;58.30;;;;;;4994466;28;19965;-76
2024/04/05 03:07:51;;;;;;;;;;;17.90;58.10;;;;;;4994514;28;20380;-76
2024/04/05 03:10:17;;;;;;;;;;;17.90;58.00;;;;;;4994610;28;19910;-76
2024/04/05 03:12:42;;;;;;;;;;;18.20;58.30;;;;;;4994320;28;19916;-76
2024/04/05 03:15:09;;;;;;;;;;;17.80;57.50;;;;;;4994786;28;19917;-76
2024/04/05 03:17:35;;;;;;;;;;;17.80;58.60;;;;;;4994303;28;19909;-76
2024/04/05 03:20:00;;;;;;;;;;;17.80;58.10;;;;;;4994236;28;19909;-76
2024/04/05 03:22:26;;;;;;;;;;;17.80;58.10;;;;;;4994305;28;19914;-76
2024/04/05 03:24:51;;;;;;;;;;;17.80;58.10;;;;;;4994182;28;19910;-76
2024/04/05 03:27:17;;;;;;;;;;;17.80;58.70;;;;;;4994190;28;20369;-76
2024/04/05 03:29:42;;;;;;;;;;;17.80;58.10;;;;;;4994117;28;19910;-76
2024/04/05 03:32:09;;;;;;;;;;;17.80;58.20;;;;;;4994107;28;20364;-76
2024/04/05 03:34:35;;;;;;;;;;;17.90;58.20;;;;;;4993961;28;20004;-77
2024/04/05 03:37:00;;;;;;;;;;;17.80;57.60;;;;;;4993775;28;19957;-76
2024/04/05 03:39:26;;;;;;;;;;;17.80;58.40;;;;;;4993858;28;20372;-77
2024/04/05 03:41:51;;;;;;;;;;;17.80;58.20;;;;;;4994093;28;20328;-76
2024/04/05 03:44:17;;;;;;;;;;;17.80;57.50;;;;;;4994169;28;20009;-77
2024/04/05 03:46:45;;;;;;;;;;;17.80;58.30;;;;;;4993902;28;19924;-76
2024/04/05 03:49:13;;;;;;;;;;;17.80;58.10;;;;;;4993341;28;21339;-76
2024/04/05 03:51:39;;;;;;;;;;;17.80;58.20;;;;;;4993682;28;19909;-76
2024/04/05 03:54:05;;;;;;;;;;;17.80;58.20;;;;;;4993141;28;19989;-76
2024/04/05 03:56:31;;;;;;;;;;;17.80;58.50;;;;;;4993882;28;19964;-76
2024/04/05 03:58:56;;;;;;;;;;;17.80;58.30;;;;;;4993441;28;19921;-76
2024/04/05 04:01:22;;;;;;;;;;;17.80;58.20;;;;;;4993733;28;19937;-76
2024/04/05 04:03:48;;;;;;;;;;;17.70;58.30;;;;;;4992066;28;19964;-76
2024/04/05 04:06:14;;;;;;;;;;;17.70;58.20;;;;;;4993276;28;19965;-76
2024/04/05 04:08:39;;;;;;;;;;;17.80;58.40;;;;;;4993274;28;19910;-76
2024/04/05 04:11:05;;;;;;;;;;;17.70;58.30;;;;;;4993185;28;19910;-76
2024/04/05 04:13:30;;;;;;;;;;;17.70;58.50;;;;;;4993260;28;19917;-76
2024/04/05 04:15:56;;;;;;;;;;;17.70;58.50;;;;;;4993116;28;20388;-76
2024/04/05 04:18:22;;;;;;;;;;;17.80;58.50;;;;;;5008087;28;19910;-76
2024/04/05 04:20:47;;;;;;;;;;;17.70;58.50;;;;;;4993043;28;19921;-76
2024/04/05 04:23:13;;;;;;;;;;;17.70;58.50;;;;;;4993003;28;19910;-76
2024/04/05 04:25:39;;;;;;;;;;;17.70;58.50;;;;;;4992959;28;19936;-76
2024/04/05 04:28:07;;;;;;;;;;;17.70;58.50;;;;;;4992918;28;20292;-76
2024/04/05 04:30:33;;;;;;;;;;;17.70;58.10;;;;;;5008365;28;19925;-71
2024/04/05 04:32:58;;;;;;;;;;;17.70;58.60;;;;;;4992812;28;19909;-72
2024/04/05 04:35:24;;;;;;;;;;;17.70;58.70;;;;;;4992853;28;19910;-72
2024/04/05 04:37:49;;;;;;;;;;;17.70;58.00;;;;;;4992604;28;19972;-72
2024/04/05 04:40:15;;;;;;;;;;;17.60;58.70;;;;;;4992798;28;19910;-72
2024/04/05 04:42:40;;;;;;;;;;;17.70;58.70;;;;;;4993088;28;19920;-72
2024/04/05 04:45:06;;;;;;;;;;;17.70;58.70;;;;;;4992684;28;19914;-72
2024/04/05 04:47:32;;;;;;;;;;;17.70;58.70;;;;;;4992978;28;19952;-72
2024/04/05 04:49:58;;;;;;;;;;;17.70;58.90;;;;;;4992674;28;20337;-72
2024/04/05 04:52:24;;;;;;;;;;;17.70;58.80;;;;;;4992938;28;19910;-72
2024/04/05 04:54:50;;;;;;;;;;;17.70;59.00;;;;;;4992678;28;19913;-72
2024/04/05 04:57:16;;;;;;;;;;;18.50;59.40;;;;;;4992574;28;20004;-72
2024/04/05 04:59:41;;;;;;;;;;;17.70;58.30;;;;;;4993115;28;20011;-72
2024/04/05 05:02:08;;;;;;;;;;;17.70;58.90;;;;;;4992556;28;19969;-72
2024/04/05 05:04:34;;;;;;;;;;;17.70;59.60;;;;;;4994624;28;19917;-72
2024/04/05 05:07:00;;;;;;;;;;;17.70;59.10;;;;;;4995209;28;19917;-72
2024/04/05 05:09:25;;;;;;;;;;;17.70;59.30;;;;;;4996598;28;20008;-72
2024/04/05 05:11:51;;;;;;;;;;;17.70;59.40;;;;;;4996676;28;19910;-72
2024/04/05 05:14:16;;;;;;;;;;;17.70;59.70;;;;;;4996323;28;20272;-72
2024/04/05 05:16:42;;;;;;;;;;;17.70;59.60;;;;;;4996370;28;19919;-72
2024/04/05 05:19:07;;;;;;;;;;;17.70;59.60;;;;;;4996295;28;19953;-72
2024/04/05 05:21:33;;;;;;;;;;;17.70;59.70;;;;;;4996238;28;20001;-72
2024/04/05 05:23:59;;;;;;;;;;;17.70;59.60;;;;;;4994975;28;19909;-72
2024/04/05 05:26:24;;;;;;;;;;;17.70;59.80;;;;;;4996157;28;19940;-72
2024/04/05 05:28:50;;;;;;;;;;;18.00;59.20;;;;;;4996773;28;19909;-72
2024/04/05 05:31:15;;;;;;;;;;;17.70;59.80;;;;;;4996139;28;19917;-72
2024/04/05 05:33:41;;;;;;;;;;;17.60;59.70;;;;;;4995988;28;20380;-72
2024/04/05 05:36:06;;;;;;;;;;;17.80;59.10;;;;;;4995888;28;19956;-72
2024/04/05 05:38:32;;;;;;;;;;;17.70;59.70;;;;;;4995851;28;19929;-72
2024/04/05 05:40:57;;;;;;;;;;;17.70;59.50;;;;;;4996118;28;19980;-72
2024/04/05 05:43:23;;;;;;;;;;;17.70;59.50;;;;;;4995795;28;19920;-72
2024/04/05 05:45:48;;;;;;;;;;;17.70;59.60;;;;;;4995822;28;20408;-73
2024/04/05 05:48:14;;;;;;;;;;;17.70;59.60;;;;;;4996043;28;20000;-73
2024/04/05 05:50:40;;;;;;;;;;;17.70;59.60;;;;;;4996020;28;19917;-74
2024/04/05 05:53:06;;;;;;;;;;;17.70;59.60;;;;;;4996043;28;19992;-73
2024/04/05 05:55:32;;;;;;;;;;;17.70;59.80;;;;;;4995672;28;20495;-72
2024/04/05 05:57:57;;;;;;;;;;;17.80;59.80;;;;;;4996228;28;19910;-72
2024/04/05 06:00:23;;;;;;;;;;;17.70;59.80;;;;;;4995685;28;19909;-73
2024/04/05 06:02:48;;;;;;;;;;;17.80;59.80;;;;;;4995630;28;19913;-72
2024/04/05 06:05:15;;;;;;;;;;;17.70;59.80;;;;;;4995347;28;19910;-72
2024/04/05 06:07:41;;;;;;;;;;;17.70;59.80;;;;;;4995387;28;19910;-72
2024/04/05 06:10:07;;;;;;;;;;;17.70;59.80;;;;;;4995398;28;20380;-71
2024/04/05 06:12:35;;;;;;;;;;;17.80;59.80;;;;;;4995381;28;19909;-72
2024/04/05 06:15:01;;;;;;;;;;;17.70;59.60;;;;;;4994779;28;20045;-73
2024/04/05 06:17:26;;;;;;;;;;;17.80;59.90;;;;;;4994940;28;19949;-71
2024/04/05 06:19:56;;;;;;;;;;;17.70;59.70;;;;;;4995458;28;19910;-71
2024/04/05 06:22:22;;;;;;;;;;;17.80;59.80;;;;;;4995511;28;19917;-72
2024/04/05 06:24:51;;;;;;;;;;;17.70;59.30;;;;;;4995922;28;19910;-73
2024/04/05 06:27:18;;;;;;;;;;;17.80;59.50;;;;;;4995286;28;19918;-72
2024/04/05 06:29:48;;;;;;;;;;;17.80;59.80;;;;;;4995210;28;19932;-73
2024/04/05 06:32:14;;;;;;;;;;;17.70;59.50;;;;;;4995283;28;19918;-73
2024/04/05 06:34:41;;;;;;;;;;;17.70;60.00;;;;;;4995259;28;19910;-73
2024/04/05 06:37:07;;;;;;;;;;;17.70;59.30;;;;;;4995024;28;19984;-73
2024/04/05 06:39:33;;;;;;;;;;;17.70;60.20;;;;;;4994864;28;20369;-73
2024/04/05 06:41:59;;;;;;;;;;;17.80;59.90;;;;;;4995194;28;20053;-72
2024/04/05 06:44:26;;;;;;;;;;;17.70;60.00;;;;;;4995073;28;20342;-72
2024/04/05 06:46:52;;;;;;;;;;;17.70;59.80;;;;;;4994942;28;19922;-72
2024/04/05 06:49:18;;;;;;;;;;;17.80;60.00;;;;;;4995001;28;20292;-72
2024/04/05 06:51:44;;;;;;;;;;;17.80;59.90;;;;;;4994541;28;19993;-73
2024/04/05 06:54:10;;;;;;;;;;;17.80;59.50;;;;;;4995106;28;19916;-72
2024/04/05 06:56:36;;;;;;;;;;;17.80;60.10;;;;;;4994809;28;19988;-72
2024/04/05 06:59:01;;;;;;;;;;;17.80;60.20;;;;;;4994876;28;19967;-72
2024/04/05 07:01:27;;;;;;;;;;;17.80;60.30;;;;;;5009732;28;19994;-72
2024/04/05 07:03:53;;;;;;;;;;;17.80;60.10;;;;;;4994500;28;19964;-72
2024/04/05 07:06:19;;;;;;;;;;;17.80;60.20;;;;;;4994746;28;19965;-72
2024/04/05 07:08:45;;;;;;;;;;;18.10;60.50;;;;;;4994251;28;19910;-72
2024/04/05 07:11:13;;;;;;;;;;;17.80;60.50;;;;;;4994511;28;19917;-73
2024/04/05 07:13:39;;;;;;;;;;;17.80;60.20;;;;;;4994297;28;20487;-72
2024/04/05 07:16:05;;;;;;;;;;;17.80;60.40;;;;;;4994270;28;20000;-72
2024/04/05 07:18:32;;;;;;;;;;;17.80;60.60;;;;;;4994486;28;19946;-72
2024/04/05 07:21:00;;;;;;;;;;;18.40;60.80;;;;;;4994465;28;19909;-72
2024/04/05 07:23:26;;;;;;;;;;;17.80;60.30;;;;;;4994617;28;19914;-74
2024/04/05 07:25:53;;;;;;;;;;;17.80;60.40;;;;;;4994063;28;20005;-75
2024/04/05 07:28:19;;;;;;;;;;;17.80;60.80;;;;;;4994219;28;19916;-75
2024/04/05 07:30:45;;;;;;;;;;;17.80;60.40;;;;;;4994546;28;19914;-74
2024/04/05 07:33:11;;;;;;;;;;;17.80;60.50;;;;;;4994401;28;19940;-74
2024/04/05 07:35:37;;;;;;;;;;;17.80;59.90;;;;;;4994161;28;19969;-76
2024/04/05 07:38:03;;;;;;;;;;;17.80;59.90;;;;;;4997880;28;19961;-76
2024/04/05 07:40:34;;;;;;;;;;;17.80;60.50;;;;;;4994093;28;19932;-74
2024/04/05 07:43:00;;;;;;;;;;;17.90;60.50;;;;;;4993951;28;19914;-75
2024/04/05 07:45:27;;;;;;;;;;;17.80;60.70;;;;;;4993575;28;20033;-75
2024/04/05 07:47:53;;;;;;;;;;;17.80;60.40;;;;;;4993811;28;19914;-75
2024/04/05 07:50:20;;;;;;;;;;;17.90;60.60;;;;;;4995693;28;20423;-73
2024/04/05 07:52:48;;;;;;;;;;;17.80;60.50;;;;;;4993884;28;19914;-73
2024/04/05 07:55:14;;;;;;;;;;;17.80;60.60;;;;;;4993832;28;19945;-75
2024/04/05 07:57:40;;;;;;;;;;;17.80;60.90;;;;;;4993352;28;20320;-73
2024/04/05 08:00:14;;;;;;;;;;;17.90;60.70;;;;;;4993391;28;19914;-73
2024/04/05 08:02:55;;;;;;;;;;;17.90;60.20;;;;;;4992618;28;19917;-73
2024/04/05 08:05:38;;;;;;;;;;;17.80;60.80;;;;;;4993023;28;19934;-73
2024/04/05 08:08:04;;;;;;;;;;;17.80;61.20;;;;;;4993539;28;20000;-73
2024/04/05 08:10:32;;;;;;;;;;;17.90;60.90;;;;;;4993558;28;19910;-74
2024/04/05 08:12:58;;;;;;;;;;;17.80;60.50;;;;;;4993368;28;20323;-73
2024/04/05 08:15:25;;;;;;;;;;;17.90;60.90;;;;;;4993342;28;19996;-75
2024/04/05 08:17:51;;;;;;;;;;;17.90;60.80;;;;;;4992972;28;20365;-81
2024/04/05 08:20:20;;;;;;;;;;;17.90;61.00;;;;;;4994524;28;19918;-75
2024/04/05 08:22:46;;;;;;;;;;;17.80;60.80;;;;;;4993264;28;19913;-75
2024/04/05 08:25:12;;;;;;;;;;;17.90;61.20;;;;;;4993101;28;19910;-72
2024/04/05 08:27:38;;;;;;;;;;;17.90;61.10;;;;;;4992822;28;20339;-76
2024/04/05 08:30:05;;;;;;;;;;;17.90;61.50;;;;;;4993216;28;19910;-72
2024/04/05 08:32:31;;;;;;;;;;;17.80;61.10;;;;;;4993115;28;19929;-72
2024/04/05 08:34:57;;;;;;;;;;;17.90;61.40;;;;;;4993076;28;19914;-72
2024/04/05 08:37:23;;;;;;;;;;;17.90;60.60;;;;;;4992761;28;20289;-72
2024/04/05 08:39:49;;;;;;;;;;;17.90;61.40;;;;;;4992587;28;19914;-71
2024/04/05 08:42:19;;;;;;;;;;;17.90;61.20;;;;;;4992750;28;19910;-71
2024/04/05 08:44:46;;;;;;;;;;;17.90;61.10;;;;;;4993013;28;19918;-73
2024/04/05 08:47:13;;;;;;;;;;;17.80;61.70;;;;;;4993054;28;19960;-80
2024/04/05 08:49:39;;;;;;;;;;;17.90;61.30;;;;;;4993061;28;19917;-77
2024/04/05 08:52:06;;;;;;;;;;;17.90;61.20;;;;;;4992569;28;19910;-75
2024/04/05 08:54:32;;;;;;;;;;;17.90;61.50;;;;;;4992698;28;19917;-75
2024/04/05 08:57:01;;;;;;;;;;;17.90;61.20;;;;;;4992973;28;19972;-76
2024/04/05 08:59:30;;;;;;;;;;;17.90;60.80;;;;;;4992913;28;19988;-75
2024/04/05 09:01:58;;;;;;;;;;;17.90;61.30;;;;;;4992692;28;19913;-75
2024/04/05 09:04:24;;;;;;;;;;;17.90;61.10;;;;;;4992913;28;19914;-75
2024/04/05 09:06:54;;;;;;;;;;;17.90;61.20;;;;;;4992441;28;19925;-75
2024/04/05 09:09:26;;;;;;;;;;;17.90;60.70;;;;;;4992818;28;20003;-75
2024/04/05 09:11:59;;;;;;;;;;;18.00;60.60;;;;;;4992848;28;19964;-74
2024/04/05 09:14:25;;;;;;;;;;;18.00;60.70;;;;;;4992688;28;19949;-75
2024/04/05 09:16:51;;;;;;;;;;;18.00;61.10;;;;;;4993193;28;20009;-79
2024/04/05 09:19:17;;;;;;;;;;;18.00;61.50;;;;;;4992582;28;19910;-78
2024/04/05 09:21:43;;;;;;;;;;;18.00;61.40;;;;;;4992600;28;19909;-77
2024/04/05 09:24:11;;;;;;;;;;;18.00;61.40;;;;;;4992775;28;19941;-78
2024/04/05 09:26:36;;;;;;;;;;;18.00;61.30;;;;;;4992628;28;20265;-79
2024/04/05 09:29:03;;;;;;;;;;;18.00;61.30;;;;;;4992319;28;19918;-75
2024/04/05 09:31:30;;;;;;;;;;;18.00;61.20;;;;;;4992559;28;19956;-75
2024/04/05 09:34:05;;;;;;;;;;;18.00;61.30;;;;;;4992649;28;19993;-75
2024/04/05 09:36:37;;;;;;;;;;;18.00;60.70;;;;;;4992046;28;19914;-75
2024/04/05 09:39:06;;;;;;;;;;;18.00;60.70;;;;;;4992705;28;19909;-74
2024/04/05 09:41:33;;;;;;;;;;;18.00;61.10;;;;;;4992239;28;19916;-77
2024/04/05 09:44:02;;;;;;;;;;;18.10;61.20;;;;;;4992993;28;20238;-74
2024/04/05 09:46:28;;;;;;;;;;;18.10;61.20;;;;;;4992305;28;19940;-74
2024/04/05 09:48:54;;;;;;;;;;;18.00;61.40;;;;;;4992558;28;19909;-75
2024/04/05 09:51:24;;;;;;;;;;;18.10;61.20;;;;;;4993789;28;19917;-74
2024/04/05 09:53:51;;;;;;;;;;;18.10;61.00;;;;;;4995793;28;19910;-75
2024/04/05 09:56:20;;;;;;;;;;;18.10;61.10;;;;;;4996020;28;20276;-74
2024/04/05 09:58:47;;;;;;;;;;;18.10;61.10;;;;;;4995662;28;19920;-75
2024/04/05 10:01:15;;;;;;;;;;;18.10;61.10;;;;;;4995924;28;19917;-75
2024/04/05 10:03:42;;;;;;;;;;;18.20;61.20;;;;;;4995657;28;19909;-75
2024/04/05 10:06:12;;;;;;;;;;;18.10;61.40;;;;;;4995491;28;20380;-72
2024/04/05 10:08:39;;;;;;;;;;;18.10;60.90;;;;;;4995505;28;20222;-74
2024/04/05 10:11:11;;;;;;;;;;;18.10;61.40;;;;;;4995798;28;19910;-72
2024/04/05 10:13:38;;;;;;;;;;;18.20;61.10;;;;;;4996159;28;19914;-74
2024/04/05 10:16:04;;;;;;;;;;;18.10;61.60;;;;;;4995660;28;19929;-73
2024/04/05 10:18:34;;;;;;;;;;;18.10;61.40;;;;;;4995633;28;20258;-76
2024/04/05 10:21:02;;;;;;;;;;;18.10;61.30;;;;;;4995875;28;19965;-74
2024/04/05 10:23:27;;;;;;;;;;;18.10;61.30;;;;;;4995221;28;19952;-72
2024/04/05 10:25:53;;;;;;;;;;;18.10;61.70;;;;;;4995263;28;19965;-75
2024/04/05 10:28:21;;;;;;;;;;;18.20;61.60;;;;;;4995444;28;19964;-74
2024/04/05 10:30:47;;;;;;;;;;;18.20;61.50;;;;;;4995207;28;19913;-74
2024/04/05 10:33:17;;;;;;;;;;;18.20;61.50;;;;;;4994914;28;19913;-74
2024/04/05 10:35:43;;;;;;;;;;;18.10;61.00;;;;;;4994950;28;19916;-74
2024/04/05 10:38:09;;;;;;;;;;;18.10;61.00;;;;;;4994797;28;19922;-74
2024/04/05 10:40:35;;;;;;;;;;;18.10;61.70;;;;;;4995610;28;19972;-74
2024/04/05 10:43:08;;;;;;;;;;;18.20;61.80;;;;;;4995196;28;19937;-74
2024/04/05 10:45:34;;;;;;;;;;;18.10;61.10;;;;;;4994918;28;19972;-74
2024/04/05 10:48:00;;;;;;;;;;;18.10;61.90;;;;;;4994805;28;19969;-74
2024/04/05 10:50:25;;;;;;;;;;;18.20;61.70;;;;;;4994660;28;20023;-74
2024/04/05 10:52:52;;;;;;;;;;;18.10;61.90;;;;;;4995020;28;19993;-74
2024/04/05 10:55:18;;;;;;;;;;;18.10;61.60;;;;;;4994477;28;20499;-74
2024/04/05 10:57:44;;;;;;;;;;;18.20;61.80;;;;;;4994817;28;19910;-74
2024/04/05 11:00:11;;;;;;;;;;;18.20;61.90;;;;;;4994973;28;20312;-74
2024/04/05 11:02:41;;;;;;;;;;;18.20;61.70;;;;;;4994327;28;19918;-74
2024/04/05 11:05:19;;;;;;;;;;;18.20;61.80;;;;;;4994739;28;19916;-74
2024/04/05 11:07:45;;;;;;;;;;;18.20;61.90;;;;;;4994663;28;20018;-74
2024/04/05 11:10:12;;;;;;;;;;;18.20;62.20;;;;;;4994985;28;19964;-78
2024/04/05 11:12:38;;;;;;;;;;;18.20;62.00;;;;;;4994346;28;20378;-77
2024/04/05 11:15:04;;;;;;;;;;;18.20;62.20;;;;;;4994724;28;19985;-78
2024/04/05 11:17:30;;;;;;;;;;;18.20;62.30;;;;;;4994656;28;19917;-77
2024/04/05 11:20:09;;;;;;;;;;;18.20;62.40;;;;;;4994508;28;19913;-78
2024/04/05 11:22:35;;;;;;;;;;;18.20;61.70;;;;;;4994522;28;19910;-78
2024/04/05 11:25:02;;;;;;;;;;;18.20;62.30;;;;;;4994192;28;19910;-78
2024/04/05 11:27:29;;;;;;;;;;;18.20;62.60;;;;;;4994395;28;19961;-78
2024/04/05 11:29:55;;;;;;;;;;;18.20;62.50;;;;;;4994338;28;19917;-78
2024/04/05 11:32:25;;;;;;;;;;;18.20;62.90;;;;;;4994379;28;20052;-77
2024/04/05 11:34:51;;;;;;;;;;;18.20;62.10;;;;;;4994052;28;19910;-77
2024/04/05 11:37:17;;;;;;;;;;;18.30;62.20;;;;;;4993805;28;19929;-78
2024/04/05 11:39:43;;;;;;;;;;;18.30;63.00;;;;;;4994365;28;20032;-78
2024/04/05 11:42:09;;;;;;;;;;;18.30;63.10;;;;;;4993919;28;19950;-77
2024/04/05 11:44:35;;;;;;;;;;;18.30;63.00;;;;;;4994148;28;19969;-77
2024/04/05 11:47:01;;;;;;;;;;;18.30;62.90;;;;;;4994078;28;19917;-78
2024/04/05 11:49:27;;;;;;;;;;;18.20;62.70;;;;;;4993927;28;20419;-78
2024/04/05 11:51:53;;;;;;;;;;;18.30;62.20;;;;;;4993760;28;20381;-78
2024/04/05 11:54:19;;;;;;;;;;;17.80;62.80;;;;;;4993971;28;19928;-78
2024/04/05 11:56:45;;;;;;;;;;;18.30;62.90;;;;;;4993906;28;19960;-78
2024/04/05 11:59:11;;;;;;;;;;;18.30;62.90;;;;;;4993878;28;19910;-78
2024/04/05 12:01:37;;;;;;;;;;;18.30;62.90;;;;;;4993520;28;19914;-78
2024/04/05 12:04:03;;;;;;;;;;;18.30;63.10;;;;;;4993726;28;19917;-78
2024/04/05 12:06:29;;;;;;;;;;;18.40;62.80;;;;;;4994203;28;20060;-78
2024/04/05 12:08:56;;;;;;;;;;;18.40;62.90;;;;;;4993650;28;20380;-77
2024/04/05 12:11:22;;;;;;;;;;;18.40;62.80;;;;;;4993744;28;19910;-78
2024/04/05 12:13:49;;;;;;;;;;;18.50;62.50;;;;;;4993041;28;19932;-78
2024/04/05 12:16:15;;;;;;;;;;;18.50;62.60;;;;;;4993544;28;19910;-77
2024/04/05 12:18:41;;;;;;;;;;;18.50;62.40;;;;;;4993445;28;20012;-79
2024/04/05 12:21:07;;;;;;;;;;;18.60;62.50;;;;;;4993273;28;19941;-79
2024/04/05 12:23:33;;;;;;;;;;;18.50;62.50;;;;;;4993605;28;19914;-78
2024/04/05 12:25:59;;;;;;;;;;;18.60;62.50;;;;;;4993343;28;19920;-78
2024/04/05 12:28:24;;;;;;;;;;;18.60;63.20;;;;;;4993465;28;19945;-78
2024/04/05 12:30:50;;;;;;;;;;;18.60;62.40;;;;;;4993675;28;19934;-78
2024/04/05 12:33:17;;;;;;;;;;;18.60;62.40;;;;;;4993367;28;19921;-78
2024/04/05 12:35:54;;;;;;;;;;;18.70;61.70;;;;;;4993855;28;19910;-79
2024/04/05 12:38:20;;;;;;;;;;;18.70;61.60;;;;;;4992974;28;19965;-79
2024/04/05 12:40:52;;;;;;;;;;;18.70;62.30;;;;;;4993014;28;19914;-79
2024/04/05 12:43:18;;;;;;;;;;;18.80;62.60;;;;;;4993242;28;19932;-78
2024/04/05 12:45:46;;;;;;;;;;;18.80;62.30;;;;;;4993089;28;19910;-78
2024/04/05 12:48:12;;;;;;;;;;;18.80;62.10;;;;;;4993125;28;19989;-78
2024/04/05 12:50:38;;;;;;;;;;;18.80;62.40;;;;;;4992707;28;20068;-78
2024/04/05 12:53:04;;;;;;;;;;;18.80;62.30;;;;;;4992796;28;19910;-78
2024/04/05 12:55:30;;;;;;;;;;;18.90;62.50;;;;;;4992910;28;20008;-78
2024/04/05 12:57:56;;;;;;;;;;;18.90;62.10;;;;;;4992874;28;19933;-78
2024/04/05 13:00:24;;;;;;;;;;;19.00;62.00;;;;;;4993100;28;19909;-78
2024/04/05 13:02:50;;;;;;;;;;;19.10;61.90;;;;;;4992718;28;19909;-78
2024/04/05 13:05:16;;;;;;;;;;;19.30;61.20;;;;;;4993249;28;20401;-78
2024/04/05 13:07:42;;;;;;;;;;;19.40;60.90;;;;;;4992580;28;20020;-78
2024/04/05 13:10:08;;;;;;;;;;;19.50;60.70;;;;;;4992605;28;19956;-78
2024/04/05 13:12:34;;;;;;;;;;;19.50;60.60;;;;;;4992995;28;19913;-78
2024/04/05 13:15:00;;;;;;;;;;;19.60;60.30;;;;;;4992972;28;19909;-78
2024/04/05 13:17:25;;;;;;;;;;;19.90;59.90;;;;;;4992920;28;20372;-78
2024/04/05 13:19:51;;;;;;;;;;;20.10;59.60;;;;;;4992526;28;19933;-78
2024/04/05 13:22:20;;;;;;;;;;;20.30;58.80;;;;;;4992904;28;19910;-78
2024/04/05 13:24:46;;;;;;;;;;;20.50;58.40;;;;;;4993673;28;20295;-79
2024/04/05 13:27:12;;;;;;;;;;;20.60;57.70;;;;;;4996324;28;20004;-78
2024/04/05 13:29:40;;;;;;;;;;;20.80;57.60;;;;;;4996877;28;19910;-79
2024/04/05 13:32:06;;;;;;;;;;;21.00;56.80;;;;;;4996985;28;19914;-78
2024/04/05 13:34:32;;;;;;;;;;;21.10;56.40;;;;;;4997012;28;19922;-78
2024/04/05 13:36:58;;;;;;;;;;;21.40;55.40;;;;;;4996859;28;20292;-78
2024/04/05 13:39:23;;;;;;;;;;;21.40;55.80;;;;;;4996647;28;19910;-78
2024/04/05 13:41:50;;;;;;;;;;;21.50;55.90;;;;;;4996604;28;20008;-78
2024/04/05 13:44:16;;;;;;;;;;;21.60;55.50;;;;;;4996541;28;19999;-78
2024/04/05 13:46:42;;;;;;;;;;;21.60;56.00;;;;;;4996185;28;19961;-78
2024/04/05 13:49:08;;;;;;;;;;;21.70;55.30;;;;;;4996774;28;20001;-78
2024/04/05 13:51:35;;;;;;;;;;;21.80;54.90;;;;;;4996650;28;19940;-78
2024/04/05 13:54:03;;;;;;;;;;;21.90;55.10;;;;;;4996239;28;19918;-78
2024/04/05 13:56:29;;;;;;;;;;;22.00;54.90;;;;;;4996087;28;20415;-78
2024/04/05 13:58:55;;;;;;;;;;;22.00;54.90;;;;;;4996150;28;19910;-78
2024/04/05 14:01:21;;;;;;;;;;;21.70;53.80;;;;;;4996827;28;20092;-78
2024/04/05 14:03:48;;;;;;;;;;;22.20;54.00;;;;;;4996165;28;19945;-78
2024/04/05 14:06:14;;;;;;;;;;;22.50;54.50;;;;;;4996196;28;19914;-78
2024/04/05 14:08:43;;;;;;;;;;;22.40;53.50;;;;;;4996113;28;19910;-79
2024/04/05 14:11:11;;;;;;;;;;;22.40;53.60;;;;;;4996481;28;20020;-79